createdAt,value
2022-09-24T00:00:52.430Z,0.40
2022-09-24T00:01:55.317Z,0.30
2022-09-24T00:02:57.277Z,0.40
2022-09-24T00:04:01.792Z,0.30
2022-09-24T00:05:03.882Z,0.40
2022-09-24T00:06:07.658Z,0.38
2022-09-24T00:07:10.569Z,0.40
2022-09-24T00:08:13.231Z,0.50
2022-09-24T00:09:19.055Z,0.50
2022-09-24T00:10:23.117Z,0.40
2022-09-24T00:11:28.692Z,0.40
2022-09-24T00:12:30.561Z,0.50
2022-09-24T00:13:34.335Z,0.40
2022-09-24T00:14:36.268Z,0.40
2022-09-24T00:15:39.938Z,0.40
2022-09-24T00:16:44.065Z,0.30
2022-09-24T00:17:47.967Z,0.45
2022-09-24T00:18:49.909Z,0.50
2022-09-24T00:19:52.934Z,0.50
2022-09-24T00:20:54.806Z,0.50
2022-09-24T00:21:57.766Z,0.45
2022-09-24T00:23:00.169Z,0.50
2022-09-24T00:24:06.628Z,0.40
2022-09-24T00:25:27.380Z,0.43
2022-09-24T00:26:49.350Z,0.40
2022-09-24T00:27:51.696Z,0.40
2022-09-24T00:28:54.613Z,0.50
2022-09-24T00:29:56.803Z,0.40
2022-09-24T00:31:01.059Z,0.50
2022-09-24T00:32:04.068Z,0.50
2022-09-24T00:33:07.507Z,0.50
2022-09-24T00:34:09.580Z,0.50
2022-09-24T00:35:12.527Z,0.47
2022-09-24T00:36:14.892Z,0.40
2022-09-24T00:37:18.565Z,0.40
2022-09-24T00:38:20.480Z,0.50
2022-09-24T00:39:23.288Z,0.50
2022-09-24T00:40:28.766Z,0.50
2022-09-24T00:41:35.928Z,0.40
2022-09-24T00:42:37.784Z,0.40
2022-09-24T00:43:40.687Z,0.50
2022-09-24T00:44:54.361Z,0.40
2022-09-24T00:46:05.156Z,0.45
2022-09-24T00:47:11.769Z,0.40
2022-09-24T00:48:15.077Z,0.30
2022-09-24T00:49:19.519Z,0.50
2022-09-24T00:50:25.271Z,0.50
2022-09-24T00:51:30.896Z,0.50
2022-09-24T00:52:34.649Z,0.40
2022-09-24T00:53:36.837Z,0.40
2022-09-24T00:54:39.876Z,0.50
2022-09-24T00:55:44.258Z,0.40
2022-09-24T00:56:51.366Z,0.40
2022-09-24T00:57:56.365Z,0.50
2022-09-24T00:59:02.467Z,0.50
2022-09-24T01:00:05.584Z,0.50
2022-09-24T01:01:09.016Z,0.50
2022-09-24T01:02:11.335Z,0.40
2022-09-24T01:03:18.168Z,0.40
2022-09-24T01:04:21.487Z,0.40
2022-09-24T01:05:24.527Z,0.40
2022-09-24T01:06:27.889Z,0.40
2022-09-24T01:07:29.782Z,0.40
2022-09-24T01:08:32.594Z,0.40
2022-09-24T01:09:34.831Z,0.40
2022-09-24T01:10:48.807Z,0.40
2022-09-24T01:12:02.636Z,0.50
2022-09-24T01:13:20.994Z,0.50
2022-09-24T01:14:41.963Z,0.50
2022-09-24T01:15:50.367Z,0.40
2022-09-24T01:17:01.121Z,0.47
2022-09-24T01:18:11.070Z,0.50
2022-09-24T01:19:34.987Z,0.50
2022-09-24T01:21:10.838Z,0.50
2022-09-24T01:22:27.791Z,0.50
2022-09-24T01:24:06.572Z,0.40
2022-09-24T01:25:20.634Z,0.50
2022-09-24T01:26:39.498Z,0.47
2022-09-24T01:28:00.190Z,0.50
2022-09-24T01:29:29.422Z,0.50
2022-09-24T01:30:38.136Z,0.50
2022-09-24T01:31:46.758Z,0.50
2022-09-24T01:32:55.045Z,0.50
2022-09-24T01:33:59.430Z,0.50
2022-09-24T01:35:09.093Z,0.50
2022-09-24T01:36:13.031Z,0.50
2022-09-24T01:37:20.590Z,0.50
2022-09-24T01:38:26.351Z,0.50
2022-09-24T01:39:30.649Z,0.40
2022-09-24T01:40:33.351Z,0.40
2022-09-24T01:41:37.393Z,0.40
2022-09-24T01:42:42.507Z,0.40
2022-09-24T01:43:45.822Z,0.40
2022-09-24T01:44:50.257Z,0.30
2022-09-24T01:45:53.276Z,0.32
2022-09-24T01:46:55.947Z,0.40
2022-09-24T01:48:01.695Z,0.40
2022-09-24T01:49:03.620Z,0.40
2022-09-24T01:50:07.633Z,0.40
2022-09-24T01:51:14.809Z,0.40
2022-09-24T01:52:22.496Z,0.40
2022-09-24T01:53:27.391Z,0.40
2022-09-24T01:54:33.420Z,0.40
2022-09-24T01:55:39.065Z,0.38
2022-09-24T01:56:46.360Z,0.40
2022-09-24T01:57:52.115Z,0.45
2022-09-24T01:59:00.225Z,0.50
2022-09-24T02:00:09.818Z,0.40
2022-09-24T02:01:20.103Z,0.50
2022-09-24T02:02:28.878Z,0.50
2022-09-24T02:03:37.669Z,0.50
2022-09-24T02:04:44.047Z,0.50
2022-09-24T02:05:52.664Z,0.50
2022-09-24T02:07:00.127Z,0.50
2022-09-24T02:08:08.424Z,0.50
2022-09-24T02:09:31.660Z,0.50
2022-09-24T02:10:42.358Z,0.60
2022-09-24T02:11:54.315Z,0.50
2022-09-24T02:13:03.785Z,0.43
2022-09-24T02:14:09.528Z,0.50
2022-09-24T02:15:17.465Z,0.40
2022-09-24T02:16:22.907Z,0.40
2022-09-24T02:17:28.819Z,0.43
2022-09-24T02:18:34.774Z,0.40
2022-09-24T02:19:40.275Z,0.50
2022-09-24T02:20:44.073Z,0.40
2022-09-24T02:21:48.033Z,0.40
2022-09-24T02:22:51.841Z,0.40
2022-09-24T02:24:01.741Z,0.40
2022-09-24T02:25:07.008Z,0.40
2022-09-24T02:26:10.751Z,0.40
2022-09-24T02:27:13.305Z,0.40
2022-09-24T02:28:16.273Z,0.50
2022-09-24T02:29:18.638Z,0.45
2022-09-24T02:30:22.892Z,0.50
2022-09-24T02:31:29.674Z,0.50
2022-09-24T02:32:35.410Z,0.40
2022-09-24T02:34:01.032Z,0.40
2022-09-24T02:35:09.124Z,0.40
2022-09-24T02:36:12.003Z,0.40
2022-09-24T02:37:16.418Z,0.50
2022-09-24T02:38:18.619Z,0.40
2022-09-24T02:39:21.935Z,0.40
2022-09-24T02:40:24.073Z,0.50
2022-09-24T02:41:28.072Z,0.50
2022-09-24T02:42:31.352Z,0.47
2022-09-24T02:43:35.716Z,0.40
2022-09-24T02:44:37.790Z,0.40
2022-09-24T02:45:42.169Z,0.40
2022-09-24T02:46:45.259Z,0.40
2022-09-24T02:47:47.145Z,0.40
2022-09-24T02:48:50.101Z,0.40
2022-09-24T02:49:51.939Z,0.50
2022-09-24T02:50:54.771Z,0.47
2022-09-24T02:51:56.861Z,0.40
2022-09-24T02:52:59.705Z,0.40
2022-09-24T02:54:01.816Z,0.40
2022-09-24T02:55:04.957Z,0.40
2022-09-24T02:56:07.994Z,0.50
2022-09-24T02:57:11.183Z,0.40
2022-09-24T02:58:13.170Z,0.50
2022-09-24T02:59:16.085Z,0.40
2022-09-24T03:00:20.883Z,0.40
2022-09-24T03:01:25.276Z,0.40
2022-09-24T03:02:27.251Z,0.40
2022-09-24T03:03:30.163Z,0.43
2022-09-24T03:04:32.069Z,0.40
2022-09-24T03:05:34.917Z,0.40
2022-09-24T03:06:37.005Z,0.45
2022-09-24T03:07:39.827Z,0.40
2022-09-24T03:08:42.305Z,0.40
2022-09-24T03:09:45.174Z,0.50
2022-09-24T03:10:47.328Z,0.40
2022-09-24T03:11:50.293Z,0.40
2022-09-24T03:12:52.121Z,0.50
2022-09-24T03:13:54.934Z,0.50
2022-09-24T03:14:56.810Z,0.50
2022-09-24T03:15:59.684Z,0.50
2022-09-24T03:17:02.889Z,0.50
2022-09-24T03:18:05.865Z,0.50
2022-09-24T03:19:07.845Z,0.40
2022-09-24T03:20:10.935Z,0.40
2022-09-24T03:21:13.689Z,0.50
2022-09-24T03:22:16.498Z,0.40
2022-09-24T03:23:18.355Z,0.40
2022-09-24T03:24:21.241Z,0.40
2022-09-24T03:25:23.270Z,0.50
2022-09-24T03:26:26.142Z,0.40
2022-09-24T03:27:28.013Z,0.40
2022-09-24T03:28:31.452Z,0.40
2022-09-24T03:29:51.790Z,0.40
2022-09-24T03:32:06.918Z,0.40
2022-09-24T03:33:08.836Z,0.40
2022-09-24T03:34:11.789Z,0.40
2022-09-24T03:35:15.620Z,0.40
2022-09-24T03:36:20.677Z,0.40
2022-09-24T03:37:22.604Z,0.40
2022-09-24T03:38:25.842Z,0.40
2022-09-24T03:39:27.713Z,0.40
2022-09-24T03:40:30.596Z,0.40
2022-09-24T03:41:33.439Z,0.40
2022-09-24T03:42:35.355Z,0.40
2022-09-24T03:43:38.655Z,0.30
2022-09-24T03:44:40.517Z,0.30
2022-09-24T03:45:43.631Z,0.50
2022-09-24T03:46:47.043Z,0.30
2022-09-24T03:47:50.290Z,0.30
2022-09-24T03:48:53.127Z,0.40
2022-09-24T03:49:55.031Z,0.32
2022-09-24T03:50:57.978Z,0.40
2022-09-24T03:51:59.811Z,0.30
2022-09-24T03:53:02.640Z,0.38
2022-09-24T03:54:04.783Z,0.40
2022-09-24T03:55:09.064Z,0.40
2022-09-24T03:56:12.803Z,0.40
2022-09-24T03:57:14.941Z,0.35
2022-09-24T03:58:17.949Z,0.40
2022-09-24T03:59:19.811Z,0.30
2022-09-24T04:00:23.565Z,0.30
2022-09-24T04:01:25.539Z,0.40
2022-09-24T04:02:28.401Z,0.40
2022-09-24T04:03:32.289Z,0.40
2022-09-24T04:04:35.208Z,0.30
2022-09-24T04:05:37.426Z,0.40
2022-09-24T04:06:40.268Z,0.40
2022-09-24T04:07:42.958Z,0.40
2022-09-24T04:08:45.747Z,0.47
2022-09-24T04:09:47.559Z,0.50
2022-09-24T04:10:51.863Z,0.40
2022-09-24T04:11:53.918Z,0.40
2022-09-24T04:12:56.767Z,0.40
2022-09-24T04:13:58.725Z,0.40
2022-09-24T04:15:02.519Z,0.40
2022-09-24T04:16:06.019Z,0.40
2022-09-24T04:17:07.894Z,0.40
2022-09-24T04:18:10.944Z,0.40
2022-09-24T04:19:16.021Z,0.40
2022-09-24T04:20:22.715Z,0.45
2022-09-24T04:21:25.720Z,0.40
2022-09-24T04:22:29.047Z,0.50
2022-09-24T04:23:32.135Z,0.50
2022-09-24T04:24:34.181Z,0.47
2022-09-24T04:25:37.284Z,0.47
2022-09-24T04:26:39.274Z,0.50
2022-09-24T04:27:42.167Z,0.40
2022-09-24T04:28:45.039Z,0.40
2022-09-24T04:29:46.878Z,0.40
2022-09-24T04:30:49.771Z,0.40
2022-09-24T04:31:51.675Z,0.40
2022-09-24T04:32:54.774Z,0.40
2022-09-24T04:33:56.641Z,0.50
2022-09-24T04:35:05.386Z,0.43
2022-09-24T04:36:09.256Z,0.40
2022-09-24T04:37:12.059Z,0.40
2022-09-24T04:38:13.929Z,0.40
2022-09-24T04:39:16.776Z,0.50
2022-09-24T04:40:18.814Z,0.40
2022-09-24T04:41:21.704Z,0.40
2022-09-24T04:42:23.777Z,0.43
2022-09-24T04:43:26.581Z,0.40
2022-09-24T04:44:30.193Z,0.50
2022-09-24T04:45:33.833Z,0.40
2022-09-24T04:46:35.866Z,0.50
2022-09-24T04:47:40.854Z,0.40
2022-09-24T04:48:43.829Z,0.50
2022-09-24T04:49:45.837Z,0.40
2022-09-24T04:50:50.116Z,0.50
2022-09-24T04:51:51.999Z,0.47
2022-09-24T04:52:55.223Z,0.40
2022-09-24T04:53:57.093Z,0.40
2022-09-24T04:55:00.584Z,0.40
2022-09-24T04:56:03.608Z,0.45
2022-09-24T04:57:06.599Z,0.40
2022-09-24T04:58:09.320Z,0.43
2022-09-24T04:59:12.277Z,0.40
2022-09-24T05:00:17.650Z,0.30
2022-09-24T05:01:21.055Z,0.40
2022-09-24T05:02:24.177Z,0.40
2022-09-24T05:03:27.265Z,0.40
2022-09-24T05:04:30.213Z,0.40
2022-09-24T05:05:33.843Z,0.40
2022-09-24T05:06:37.216Z,0.40
2022-09-24T05:07:40.697Z,0.38
2022-09-24T05:08:42.545Z,0.40
2022-09-24T05:09:45.377Z,0.40
2022-09-24T05:10:47.311Z,0.40
2022-09-24T05:11:50.303Z,0.40
2022-09-24T05:12:52.182Z,0.50
2022-09-24T05:13:55.180Z,0.30
2022-09-24T05:14:57.156Z,0.40
2022-09-24T05:16:00.989Z,0.40
2022-09-24T05:17:03.114Z,0.40
2022-09-24T05:18:06.425Z,0.40
2022-09-24T05:19:08.454Z,0.30
2022-09-24T05:20:11.541Z,0.40
2022-09-24T05:21:13.372Z,0.43
2022-09-24T05:22:17.625Z,0.47
2022-09-24T05:23:19.568Z,0.40
2022-09-24T05:24:22.427Z,0.50
2022-09-24T05:25:24.418Z,0.40
2022-09-24T05:26:44.668Z,0.47
2022-09-24T05:27:47.991Z,0.50
2022-09-24T05:28:49.918Z,0.50
2022-09-24T05:29:52.758Z,0.50
2022-09-24T05:30:57.011Z,0.50
2022-09-24T05:32:02.849Z,0.40
2022-09-24T05:33:04.822Z,0.40
2022-09-24T05:34:07.853Z,0.50
2022-09-24T05:35:10.239Z,0.40
2022-09-24T05:36:13.115Z,0.50
2022-09-24T05:37:18.365Z,0.40
2022-09-24T05:38:20.237Z,0.50
2022-09-24T05:39:23.158Z,0.50
2022-09-24T05:40:40.127Z,0.50
2022-09-24T05:41:43.762Z,0.50
2022-09-24T05:42:46.653Z,0.50
2022-09-24T05:43:49.994Z,0.50
2022-09-24T05:44:52.483Z,0.50
2022-09-24T05:45:58.573Z,0.50
2022-09-24T05:47:01.514Z,0.50
2022-09-24T05:48:03.533Z,0.50
2022-09-24T05:49:06.461Z,0.60
2022-09-24T05:50:08.512Z,0.60
2022-09-24T05:51:11.355Z,0.60
2022-09-24T05:52:13.315Z,0.50
2022-09-24T05:53:17.613Z,0.60
2022-09-24T05:54:21.170Z,0.60
2022-09-24T05:55:23.214Z,0.60
2022-09-24T05:56:26.273Z,0.60
2022-09-24T05:57:28.253Z,0.63
2022-09-24T05:58:31.650Z,0.60
2022-09-24T05:59:33.535Z,0.60
2022-09-24T06:00:37.061Z,0.60
2022-09-24T06:01:40.081Z,0.57
2022-09-24T06:02:42.174Z,0.60
2022-09-24T06:03:45.110Z,0.50
2022-09-24T06:04:47.004Z,0.50
2022-09-24T06:05:51.734Z,0.57
2022-09-24T06:06:53.674Z,0.50
2022-09-24T06:07:57.016Z,0.40
2022-09-24T06:09:00.272Z,0.50
2022-09-24T06:10:03.251Z,0.50
2022-09-24T06:11:06.834Z,0.60
2022-09-24T06:12:10.817Z,0.50
2022-09-24T06:13:14.195Z,0.50
2022-09-24T06:14:17.632Z,0.50
2022-09-24T06:15:20.700Z,0.50
2022-09-24T06:16:23.759Z,0.50
2022-09-24T06:17:26.065Z,0.60
2022-09-24T06:18:28.962Z,0.57
2022-09-24T06:19:30.923Z,0.52
2022-09-24T06:20:33.970Z,0.50
2022-09-24T06:21:36.871Z,0.50
2022-09-24T06:22:38.767Z,0.50
2022-09-24T06:23:45.324Z,0.50
2022-09-24T06:24:54.564Z,0.50
2022-09-24T06:25:59.963Z,0.50
2022-09-24T06:27:02.358Z,0.50
2022-09-24T06:28:06.735Z,0.50
2022-09-24T06:29:09.591Z,0.50
2022-09-24T06:30:13.708Z,0.50
2022-09-24T06:31:17.244Z,0.50
2022-09-24T06:32:19.869Z,0.50
2022-09-24T06:33:23.431Z,0.50
2022-09-24T06:34:25.778Z,0.47
2022-09-24T06:35:29.202Z,0.50
2022-09-24T06:36:31.851Z,0.50
2022-09-24T06:37:35.223Z,0.40
2022-09-24T06:38:39.484Z,0.43
2022-09-24T06:39:41.599Z,0.50
2022-09-24T06:40:48.559Z,0.40
2022-09-24T06:41:51.541Z,0.43
2022-09-24T06:42:55.206Z,0.50
2022-09-24T06:43:57.454Z,0.40
2022-09-24T06:45:00.683Z,0.50
2022-09-24T06:46:03.725Z,0.50
2022-09-24T06:47:07.082Z,0.50
2022-09-24T06:48:12.482Z,0.50
2022-09-24T06:49:15.575Z,0.40
2022-09-24T06:50:17.722Z,0.50
2022-09-24T06:51:21.456Z,0.47
2022-09-24T06:52:29.774Z,0.50
2022-09-24T06:53:32.990Z,0.50
2022-09-24T06:54:36.160Z,0.50
2022-09-24T06:55:39.564Z,0.30
2022-09-24T06:56:44.371Z,0.40
2022-09-24T06:57:46.804Z,0.40
2022-09-24T06:58:50.000Z,0.40
2022-09-24T06:59:52.452Z,0.40
2022-09-24T07:00:58.414Z,0.40
2022-09-24T07:02:00.871Z,0.40
2022-09-24T07:03:04.588Z,0.40
2022-09-24T07:04:06.705Z,0.30
2022-09-24T07:05:11.819Z,0.40
2022-09-24T07:06:15.124Z,0.40
2022-09-24T07:07:29.797Z,0.40
2022-09-24T07:08:34.089Z,0.40
2022-09-24T07:09:37.861Z,0.40
2022-09-24T07:10:44.736Z,0.40
2022-09-24T07:11:48.493Z,0.40
2022-09-24T07:12:51.840Z,0.40
2022-09-24T07:13:55.268Z,0.40
2022-09-24T07:14:58.168Z,0.45
2022-09-24T07:16:02.484Z,0.40
2022-09-24T07:17:04.673Z,0.40
2022-09-24T07:18:08.410Z,0.50
2022-09-24T07:19:11.600Z,0.40
2022-09-24T07:20:14.191Z,0.40
2022-09-24T07:21:18.083Z,0.50
2022-09-24T07:22:21.127Z,0.40
2022-09-24T07:23:24.792Z,0.40
2022-09-24T07:24:27.427Z,0.40
2022-09-24T07:25:31.218Z,0.40
2022-09-24T07:26:33.711Z,0.35
2022-09-24T07:27:38.688Z,0.38
2022-09-24T07:28:41.037Z,0.40
2022-09-24T07:29:44.408Z,0.30
2022-09-24T07:30:46.676Z,0.40
2022-09-24T07:31:50.248Z,0.40
2022-09-24T07:32:55.336Z,0.30
2022-09-24T07:33:58.992Z,0.38
2022-09-24T07:35:01.553Z,0.30
2022-09-24T07:36:07.338Z,0.30
2022-09-24T07:37:09.687Z,0.30
2022-09-24T07:38:13.343Z,0.40
2022-09-24T07:39:16.354Z,0.40
2022-09-24T07:40:24.566Z,0.40
2022-09-24T07:41:26.831Z,0.30
2022-09-24T07:42:30.008Z,0.32
2022-09-24T07:43:33.763Z,0.40
2022-09-24T07:44:38.073Z,0.40
2022-09-24T07:45:41.948Z,0.40
2022-09-24T07:46:46.543Z,0.40
2022-09-24T07:47:49.699Z,0.40
2022-09-24T07:48:56.091Z,0.30
2022-09-24T07:49:59.414Z,0.30
2022-09-24T07:51:01.741Z,0.30
2022-09-24T07:52:04.771Z,0.30
2022-09-24T07:53:07.236Z,0.30
2022-09-24T07:54:13.869Z,0.40
2022-09-24T07:55:19.124Z,0.30
2022-09-24T07:56:22.748Z,0.30
2022-09-24T07:57:27.332Z,0.40
2022-09-24T07:58:29.372Z,0.40
2022-09-24T07:59:33.785Z,0.30
2022-09-24T08:00:35.827Z,0.40
2022-09-24T08:01:39.783Z,0.40
2022-09-24T08:02:42.140Z,0.30
2022-09-24T08:03:46.310Z,0.30
2022-09-24T08:04:49.273Z,0.30
2022-09-24T08:05:56.487Z,0.30
2022-09-24T08:06:58.513Z,0.30
2022-09-24T08:08:02.119Z,0.30
2022-09-24T08:09:04.794Z,0.32
2022-09-24T08:10:08.334Z,0.40
2022-09-24T08:11:13.429Z,0.40
2022-09-24T08:12:15.447Z,0.30
2022-09-24T08:13:19.448Z,0.30
2022-09-24T08:14:24.082Z,0.30
2022-09-24T08:15:28.615Z,0.40
2022-09-24T08:16:30.941Z,0.40
2022-09-24T08:17:34.632Z,0.40
2022-09-24T08:18:37.031Z,0.32
2022-09-24T08:19:40.160Z,0.35
2022-09-24T08:20:42.421Z,0.40
2022-09-24T08:21:45.654Z,0.40
2022-09-24T08:22:49.326Z,0.40
2022-09-24T08:23:51.824Z,0.40
2022-09-24T08:24:55.990Z,0.40
2022-09-24T08:25:58.545Z,0.40
2022-09-24T08:27:01.901Z,0.40
2022-09-24T08:28:05.281Z,0.40
2022-09-24T08:29:08.586Z,0.40
2022-09-24T08:30:12.036Z,0.40
2022-09-24T08:31:16.857Z,0.40
2022-09-24T08:32:19.088Z,0.30
2022-09-24T08:33:22.503Z,0.40
2022-09-24T08:34:25.523Z,0.38
2022-09-24T08:35:29.183Z,0.40
2022-09-24T08:36:31.808Z,0.45
2022-09-24T08:37:35.155Z,0.40
2022-09-24T08:38:39.338Z,0.40
2022-09-24T08:39:44.171Z,0.40
2022-09-24T08:40:54.948Z,0.38
2022-09-24T08:42:02.410Z,0.30
2022-09-24T08:43:17.627Z,0.40
2022-09-24T08:44:39.685Z,0.40
2022-09-24T08:46:06.200Z,0.30
2022-09-24T08:47:25.441Z,0.30
2022-09-24T08:48:33.073Z,0.40
2022-09-24T08:49:41.294Z,0.40
2022-09-24T08:50:52.269Z,0.40
2022-09-24T08:52:02.214Z,0.30
2022-09-24T08:53:14.302Z,0.40
2022-09-24T08:54:17.678Z,0.30
2022-09-24T08:55:25.876Z,0.40
2022-09-24T08:56:32.429Z,0.40
2022-09-24T08:57:40.722Z,0.30
2022-09-24T08:58:50.465Z,0.40
2022-09-24T08:59:53.623Z,0.40
2022-09-24T09:01:04.610Z,0.35
2022-09-24T09:02:25.825Z,0.40
2022-09-24T09:03:37.215Z,0.40
2022-09-24T09:04:54.820Z,0.40
2022-09-24T09:06:02.203Z,0.38
2022-09-24T09:07:20.885Z,0.35
2022-09-24T09:09:01.335Z,0.30
2022-09-24T09:10:04.114Z,0.40
2022-09-24T09:11:11.357Z,0.40
2022-09-24T09:12:18.679Z,0.38
2022-09-24T09:13:27.376Z,0.30
2022-09-24T09:14:42.187Z,0.40
2022-09-24T09:15:51.373Z,0.30
2022-09-24T09:17:02.501Z,0.35
2022-09-24T09:18:16.201Z,0.40
2022-09-24T09:19:21.618Z,0.30
2022-09-24T09:20:37.283Z,0.40
2022-09-24T09:21:41.853Z,0.40
2022-09-24T09:22:49.371Z,0.40
2022-09-24T09:23:52.701Z,0.40
2022-09-24T09:25:03.679Z,0.40
2022-09-24T09:26:12.949Z,0.30
2022-09-24T09:27:19.085Z,0.40
2022-09-24T09:28:23.173Z,0.30
2022-09-24T09:29:28.165Z,0.35
2022-09-24T09:30:43.789Z,0.30
2022-09-24T09:31:56.544Z,0.30
2022-09-24T09:33:24.094Z,0.30
2022-09-24T09:34:41.875Z,0.30
2022-09-24T09:35:52.697Z,0.25
2022-09-24T09:37:05.347Z,0.30
2022-09-24T09:38:23.397Z,0.30
2022-09-24T09:39:37.405Z,0.30
2022-09-24T09:40:45.766Z,0.30
2022-09-24T09:41:54.418Z,0.35
2022-09-24T09:43:03.134Z,0.30
2022-09-24T09:44:13.561Z,0.30
2022-09-24T09:46:34.542Z,0.20
2022-09-24T09:47:44.712Z,0.30
2022-09-24T09:48:54.359Z,0.40
2022-09-24T09:50:03.919Z,0.35
2022-09-24T09:51:08.322Z,0.30
2022-09-24T09:52:21.123Z,0.30
2022-09-24T09:53:26.278Z,0.40
2022-09-24T09:54:37.180Z,0.30
2022-09-24T09:55:40.306Z,0.30
2022-09-24T09:56:44.977Z,0.30
2022-09-24T09:57:48.846Z,0.30
2022-09-24T09:58:55.798Z,0.30
2022-09-24T09:59:58.001Z,0.30
2022-09-24T10:01:08.063Z,0.30
2022-09-24T10:02:11.961Z,0.30
2022-09-24T10:03:27.440Z,0.30
2022-09-24T10:04:40.014Z,0.30
2022-09-24T10:05:42.439Z,0.30
2022-09-24T10:06:45.523Z,0.30
2022-09-24T10:07:47.801Z,0.32
2022-09-24T10:08:50.916Z,0.30
2022-09-24T10:10:03.974Z,0.30
2022-09-24T10:11:08.506Z,0.30
2022-09-24T10:12:16.666Z,0.30
2022-09-24T10:13:19.936Z,0.28
2022-09-24T10:14:23.519Z,0.40
2022-09-24T10:15:27.066Z,0.30
2022-09-24T10:16:29.201Z,0.30
2022-09-24T10:17:38.405Z,0.30
2022-09-24T10:18:47.429Z,0.30
2022-09-24T10:19:51.088Z,0.40
2022-09-24T10:20:54.581Z,0.30
2022-09-24T10:21:58.118Z,0.30
2022-09-24T10:23:04.216Z,0.30
2022-09-24T10:24:12.751Z,0.20
2022-09-24T10:25:24.477Z,0.30
2022-09-24T10:26:38.678Z,0.30
2022-09-24T10:27:44.231Z,0.30
2022-09-24T10:29:07.518Z,0.30
2022-09-24T10:30:33.710Z,0.30
2022-09-24T10:31:39.309Z,0.30
2022-09-24T10:32:41.580Z,0.30
2022-09-24T10:33:47.231Z,0.30
2022-09-24T10:34:57.245Z,0.20
2022-09-24T10:36:06.907Z,0.30
2022-09-24T10:37:15.302Z,0.30
2022-09-24T10:38:20.567Z,0.30
2022-09-24T10:39:22.705Z,0.38
2022-09-24T10:40:29.939Z,0.30
2022-09-24T10:41:32.592Z,0.28
2022-09-24T10:42:37.430Z,0.30
2022-09-24T10:43:40.723Z,0.30
2022-09-24T10:44:42.781Z,0.30
2022-09-24T10:46:09.177Z,0.30
2022-09-24T10:47:30.653Z,0.30
2022-09-24T10:48:41.895Z,0.30
2022-09-24T10:50:16.571Z,0.30
2022-09-24T10:51:35.290Z,0.30
2022-09-24T10:52:46.373Z,0.30
2022-09-24T10:54:00.331Z,0.30
2022-09-24T10:55:15.045Z,0.30
2022-09-24T10:56:27.503Z,0.32
2022-09-24T10:57:34.743Z,0.40
2022-09-24T10:59:03.632Z,0.30
2022-09-24T11:00:11.813Z,0.30
2022-09-24T11:01:19.347Z,0.40
2022-09-24T11:02:54.186Z,0.40
2022-09-24T11:04:10.751Z,0.40
2022-09-24T11:05:21.809Z,0.40
2022-09-24T11:06:39.433Z,0.30
2022-09-24T11:08:14.715Z,0.30
2022-09-24T11:09:29.847Z,0.30
2022-09-24T11:11:02.666Z,0.32
2022-09-24T11:12:09.612Z,0.38
2022-09-24T11:13:21.689Z,0.40
2022-09-24T11:14:40.985Z,0.38
2022-09-24T11:16:14.851Z,0.30
2022-09-24T11:17:34.374Z,0.40
2022-09-24T11:18:48.059Z,0.30
2022-09-24T11:20:14.071Z,0.35
2022-09-24T11:21:30.010Z,0.40
2022-09-24T11:22:45.480Z,0.30
2022-09-24T11:24:02.244Z,0.30
2022-09-24T11:25:21.257Z,0.30
2022-09-24T11:26:32.688Z,0.30
2022-09-24T11:27:50.320Z,0.30
2022-09-24T11:29:22.117Z,0.25
2022-09-24T11:30:31.245Z,0.40
2022-09-24T11:31:42.411Z,0.32
2022-09-24T11:33:22.736Z,0.30
2022-09-24T11:34:43.296Z,0.40
2022-09-24T11:36:01.399Z,0.28
2022-09-24T11:37:21.177Z,0.30
2022-09-24T11:38:35.892Z,0.30
2022-09-24T11:39:52.963Z,0.30
2022-09-24T11:41:12.442Z,0.30
2022-09-24T11:42:23.807Z,0.30
2022-09-24T11:43:49.008Z,0.20
2022-09-24T11:45:17.221Z,0.30
2022-09-24T11:46:31.406Z,0.30
2022-09-24T11:47:54.472Z,0.30
2022-09-24T11:49:14.552Z,0.30
2022-09-24T11:50:28.206Z,0.32
2022-09-24T11:51:42.095Z,0.30
2022-09-24T11:52:50.888Z,0.30
2022-09-24T11:53:59.000Z,0.32
2022-09-24T11:55:10.284Z,0.30
2022-09-24T11:56:19.050Z,0.20
2022-09-24T11:57:24.547Z,0.30
2022-09-24T11:58:33.173Z,0.20
2022-09-24T11:59:42.333Z,0.30
2022-09-24T12:00:52.179Z,0.30
2022-09-24T12:02:01.623Z,0.30
2022-09-24T12:03:12.427Z,0.30
2022-09-24T12:04:20.637Z,0.30
2022-09-24T12:05:30.198Z,0.30
2022-09-24T12:06:39.237Z,0.30
2022-09-24T12:07:50.096Z,0.30
2022-09-24T12:08:57.609Z,0.30
2022-09-24T12:10:07.396Z,0.30
2022-09-24T12:11:17.399Z,0.30
2022-09-24T12:12:25.198Z,0.30
2022-09-24T12:13:33.606Z,0.35
2022-09-24T12:14:45.004Z,0.30
2022-09-24T12:15:53.817Z,0.30
2022-09-24T12:17:01.303Z,0.30
2022-09-24T12:18:12.725Z,0.30
2022-09-24T12:19:22.178Z,0.30
2022-09-24T12:20:31.769Z,0.30
2022-09-24T12:21:41.497Z,0.30
2022-09-24T12:22:50.976Z,0.40
2022-09-24T12:24:11.503Z,0.30
2022-09-24T12:25:15.773Z,0.30
2022-09-24T12:26:24.100Z,0.30
2022-09-24T12:27:35.897Z,0.30
2022-09-24T12:29:04.253Z,0.30
2022-09-24T12:30:44.537Z,0.30
2022-09-24T12:32:15.970Z,0.30
2022-09-24T12:33:29.252Z,0.30
2022-09-24T12:36:02.078Z,0.20
2022-09-24T12:37:07.451Z,0.30
2022-09-24T12:38:17.514Z,0.30
2022-09-24T12:39:23.213Z,0.30
2022-09-24T12:40:51.029Z,0.30
2022-09-24T12:41:59.969Z,0.30
2022-09-24T12:43:10.941Z,0.32
2022-09-24T12:44:22.317Z,0.30
2022-09-24T12:45:26.505Z,0.30
2022-09-24T12:46:38.297Z,0.30
2022-09-24T12:47:48.727Z,0.30
2022-09-24T12:48:54.010Z,0.32
2022-09-24T12:50:00.409Z,0.30
2022-09-24T12:51:07.209Z,0.40
2022-09-24T12:52:19.943Z,0.30
2022-09-24T12:53:27.925Z,0.30
2022-09-24T12:54:33.638Z,0.28
2022-09-24T12:55:36.328Z,0.28
2022-09-24T12:56:41.048Z,0.30
2022-09-24T12:57:52.737Z,0.30
2022-09-24T12:58:55.782Z,0.30
2022-09-24T13:00:01.353Z,0.30
2022-09-24T13:01:17.190Z,0.40
2022-09-24T13:02:24.682Z,0.40
2022-09-24T13:03:36.787Z,0.28
2022-09-24T13:04:46.720Z,0.28
2022-09-24T13:05:52.171Z,0.30
2022-09-24T13:06:56.056Z,0.30
2022-09-24T13:08:03.088Z,0.30
2022-09-24T13:09:30.728Z,0.40
2022-09-24T13:10:37.193Z,0.30
2022-09-24T13:11:40.198Z,0.30
2022-09-24T13:12:44.414Z,0.30
2022-09-24T13:13:49.916Z,0.30
2022-09-24T13:15:01.460Z,0.30
2022-09-24T13:16:06.911Z,0.35
2022-09-24T13:17:16.454Z,0.30
2022-09-24T13:18:25.158Z,0.30
2022-09-24T13:19:37.560Z,0.30
2022-09-24T13:20:49.915Z,0.30
2022-09-24T13:22:00.626Z,0.30
2022-09-24T13:23:15.798Z,0.30
2022-09-24T13:24:31.335Z,0.30
2022-09-24T13:25:38.268Z,0.30
2022-09-24T13:26:45.035Z,0.32
2022-09-24T13:27:59.915Z,0.40
2022-09-24T13:29:07.283Z,0.30
2022-09-24T13:30:23.151Z,0.30
2022-09-24T13:31:41.720Z,0.30
2022-09-24T13:32:57.436Z,0.30
2022-09-24T13:34:14.655Z,0.30
2022-09-24T13:35:25.881Z,0.30
2022-09-24T13:36:39.552Z,0.35
2022-09-24T13:37:58.680Z,0.40
2022-09-24T13:39:09.227Z,0.30
2022-09-24T13:40:20.668Z,0.40
2022-09-24T13:41:31.110Z,0.30
2022-09-24T13:42:38.851Z,0.40
2022-09-24T13:43:45.649Z,0.30
2022-09-24T13:44:53.975Z,0.32
2022-09-24T13:46:03.695Z,0.30
2022-09-24T13:47:15.807Z,0.20
2022-09-24T13:48:28.688Z,0.30
2022-09-24T13:49:35.487Z,0.30
2022-09-24T13:50:47.557Z,0.30
2022-09-24T13:51:58.341Z,0.30
2022-09-24T13:53:06.592Z,0.30
2022-09-24T13:54:21.165Z,0.30
2022-09-24T13:55:32.593Z,0.30
2022-09-24T13:56:41.810Z,0.30
2022-09-24T13:57:47.782Z,0.30
2022-09-24T13:58:51.728Z,0.30
2022-09-24T14:00:15.724Z,0.32
2022-09-24T14:01:23.513Z,0.30
2022-09-24T14:02:30.455Z,0.30
2022-09-24T14:03:37.423Z,0.30
2022-09-24T14:04:47.052Z,0.30
2022-09-24T14:05:54.173Z,0.30
2022-09-24T14:07:02.475Z,0.30
2022-09-24T14:08:09.173Z,0.30
2022-09-24T14:09:28.801Z,0.25
2022-09-24T14:10:35.846Z,0.20
2022-09-24T14:11:49.226Z,0.20
2022-09-24T14:13:21.554Z,0.20
2022-09-24T14:14:26.775Z,0.20
2022-09-24T14:15:32.077Z,0.30
2022-09-24T14:16:34.757Z,0.25
2022-09-24T14:17:38.029Z,0.20
2022-09-24T14:18:41.486Z,0.30
2022-09-24T14:19:47.010Z,0.30
2022-09-24T14:20:58.146Z,0.30
2022-09-24T14:22:06.231Z,0.40
2022-09-24T14:23:19.741Z,0.30
2022-09-24T14:24:31.929Z,0.30
2022-09-24T14:25:40.484Z,0.30
2022-09-24T14:26:52.301Z,0.22
2022-09-24T14:28:01.296Z,0.20
2022-09-24T14:29:11.317Z,0.25
2022-09-24T14:30:20.369Z,0.25
2022-09-24T14:31:23.731Z,0.28
2022-09-24T14:32:29.886Z,0.30
2022-09-24T14:33:34.834Z,0.20
2022-09-24T14:34:40.485Z,0.20
2022-09-24T14:35:47.936Z,0.30
2022-09-24T14:36:51.182Z,0.30
2022-09-24T14:37:59.299Z,0.30
2022-09-24T14:39:04.292Z,0.30
2022-09-24T14:40:13.363Z,0.30
2022-09-24T14:41:20.420Z,0.30
2022-09-24T14:42:28.692Z,0.30
2022-09-24T14:43:39.525Z,0.28
2022-09-24T14:44:45.880Z,0.30
2022-09-24T14:45:50.961Z,0.20
2022-09-24T14:46:56.502Z,0.28
2022-09-24T14:48:03.957Z,0.30
2022-09-24T14:49:17.962Z,0.30
2022-09-24T14:50:27.436Z,0.30
2022-09-24T14:51:32.818Z,0.30
2022-09-24T14:52:37.747Z,0.30
2022-09-24T14:53:41.134Z,0.30
2022-09-24T14:54:43.301Z,0.20
2022-09-24T14:55:47.279Z,0.30
2022-09-24T14:56:50.776Z,0.30